sensor_id;sensor_type;location;lat;lon;timestamp;pressure;altitude;pressure_sealevel;temperature;humidity
6132;BME280;3097;42.692;23.278;2023-07-24T00:00:37;95233.53;;;23.19;71.29
6132;BME280;3097;42.692;23.278;2023-07-24T00:03:04;95233.34;;;23.15;70.98
6132;BME280;3097;42.692;23.278;2023-07-24T00:05:30;95233.81;;;23.17;70.89
6132;BME280;3097;42.692;23.278;2023-07-24T00:07:55;95227.69;;;23.08;71.49
6132;BME280;3097;42.692;23.278;2023-07-24T00:10:21;95225.47;;;23.15;71.33
6132;BME280;3097;42.692;23.278;2023-07-24T00:12:46;95237.72;;;23.06;71.80
6132;BME280;3097;42.692;23.278;2023-07-24T00:15:11;95224.63;;;23.01;72.05
6132;BME280;3097;42.692;23.278;2023-07-24T00:17:37;95226.03;;;22.98;72.01
6132;BME280;3097;42.692;23.278;2023-07-24T00:20:02;95229.31;;;22.90;72.20
6132;BME280;3097;42.692;23.278;2023-07-24T00:22:28;95233.41;;;22.96;72.95
6132;BME280;3097;42.692;23.278;2023-07-24T00:24:53;95234.75;;;22.94;72.43
6132;BME280;3097;42.692;23.278;2023-07-24T00:27:19;95238.00;;;22.91;72.81
6132;BME280;3097;42.692;23.278;2023-07-24T00:29:44;95220.16;;;22.88;72.82
6132;BME280;3097;42.692;23.278;2023-07-24T00:32:10;95214.22;;;22.82;72.85
6132;BME280;3097;42.692;23.278;2023-07-24T00:34:35;95226.78;;;22.85;72.77
6132;BME280;3097;42.692;23.278;2023-07-24T00:37:01;95203.56;;;22.73;73.16
6132;BME280;3097;42.692;23.278;2023-07-24T00:39:26;95223.06;;;22.86;72.43
6132;BME280;3097;42.692;23.278;2023-07-24T00:41:54;95223.28;;;22.90;72.64
6132;BME280;3097;42.692;23.278;2023-07-24T00:44:19;95211.09;;;22.80;72.18
6132;BME280;3097;42.692;23.278;2023-07-24T00:46:45;95223.06;;;22.86;72.46
6132;BME280;3097;42.692;23.278;2023-07-24T00:49:10;95223.16;;;22.81;72.11
6132;BME280;3097;42.692;23.278;2023-07-24T00:51:36;95223.28;;;22.71;72.40
6132;BME280;3097;42.692;23.278;2023-07-24T00:54:02;95213.09;;;22.69;72.33
6132;BME280;3097;42.692;23.278;2023-07-24T00:56:30;95224.16;;;22.66;72.86
6132;BME280;3097;42.692;23.278;2023-07-24T00:58:56;95217.06;;;22.67;72.64
6132;BME280;3097;42.692;23.278;2023-07-24T01:01:23;95222.03;;;22.68;72.40
6132;BME280;3097;42.692;23.278;2023-07-24T01:03:48;95213.88;;;22.70;72.76
6132;BME280;3097;42.692;23.278;2023-07-24T01:06:14;95219.47;;;22.63;72.54
6132;BME280;3097;42.692;23.278;2023-07-24T01:08:40;95203.91;;;22.53;73.17
6132;BME280;3097;42.692;23.278;2023-07-24T01:13:56;95224.13;;;22.53;73.61
6132;BME280;3097;42.692;23.278;2023-07-24T01:16:26;95214.00;;;22.46;73.39
6132;BME280;3097;42.692;23.278;2023-07-24T01:18:56;95213.00;;;22.42;73.46
6132;BME280;3097;42.692;23.278;2023-07-24T01:21:38;95207.81;;;22.37;73.81
6132;BME280;3097;42.692;23.278;2023-07-24T01:24:14;95203.22;;;22.29;74.10
6132;BME280;3097;42.692;23.278;2023-07-24T01:26:45;95196.63;;;22.31;73.68
6132;BME280;3097;42.692;23.278;2023-07-24T01:29:10;95202.16;;;22.30;73.70
6132;BME280;3097;42.692;23.278;2023-07-24T01:31:36;95197.75;;;22.25;74.50
6132;BME280;3097;42.692;23.278;2023-07-24T01:34:01;95199.81;;;22.28;74.01
6132;BME280;3097;42.692;23.278;2023-07-24T01:36:27;95203.00;;;22.25;74.34
6132;BME280;3097;42.692;23.278;2023-07-24T01:38:53;95218.97;;;22.29;73.90
6132;BME280;3097;42.692;23.278;2023-07-24T01:41:19;95225.31;;;22.28;73.86
6132;BME280;3097;42.692;23.278;2023-07-24T01:43:45;95224.00;;;22.25;74.33
6132;BME280;3097;42.692;23.278;2023-07-24T01:46:10;95222.25;;;22.21;74.08
6132;BME280;3097;42.692;23.278;2023-07-24T01:48:36;95220.84;;;22.10;74.17
6132;BME280;3097;42.692;23.278;2023-07-24T01:51:01;95214.88;;;22.04;74.29
6132;BME280;3097;42.692;23.278;2023-07-24T01:53:27;95218.28;;;22.05;74.57
6132;BME280;3097;42.692;23.278;2023-07-24T01:55:52;95208.56;;;22.05;74.73
6132;BME280;3097;42.692;23.278;2023-07-24T01:58:18;95216.03;;;22.17;73.79
6132;BME280;3097;42.692;23.278;2023-07-24T02:00:43;95225.75;;;22.16;73.74
6132;BME280;3097;42.692;23.278;2023-07-24T02:03:09;95219.13;;;22.19;73.47
6132;BME280;3097;42.692;23.278;2023-07-24T02:05:34;95219.72;;;22.16;74.04
6132;BME280;3097;42.692;23.278;2023-07-24T02:08:00;95211.41;;;22.09;73.92
6132;BME280;3097;42.692;23.278;2023-07-24T02:10:26;95195.28;;;21.96;74.48
6132;BME280;3097;42.692;23.278;2023-07-24T02:12:51;95223.41;;;22.15;74.03
6132;BME280;3097;42.692;23.278;2023-07-24T02:15:17;95217.09;;;22.16;74.02
6132;BME280;3097;42.692;23.278;2023-07-24T02:17:42;95220.28;;;22.13;74.29
6132;BME280;3097;42.692;23.278;2023-07-24T02:20:08;95216.09;;;22.12;74.44
6132;BME280;3097;42.692;23.278;2023-07-24T02:22:33;95215.59;;;22.10;74.30
6132;BME280;3097;42.692;23.278;2023-07-24T02:24:59;95216.44;;;22.05;74.61
6132;BME280;3097;42.692;23.278;2023-07-24T02:27:29;95211.88;;;22.11;73.82
6132;BME280;3097;42.692;23.278;2023-07-24T02:29:56;95196.59;;;21.99;73.47
6132;BME280;3097;42.692;23.278;2023-07-24T02:32:21;95130.94;;;21.61;73.90
6132;BME280;3097;42.692;23.278;2023-07-24T02:34:49;95204.19;;;22.00;73.60
6132;BME280;3097;42.692;23.278;2023-07-24T02:37:14;95210.53;;;21.94;73.91
6132;BME280;3097;42.692;23.278;2023-07-24T02:39:40;95213.94;;;21.95;73.91
6132;BME280;3097;42.692;23.278;2023-07-24T02:42:05;95194.91;;;21.84;73.88
6132;BME280;3097;42.692;23.278;2023-07-24T02:44:34;95207.69;;;21.91;73.66
6132;BME280;3097;42.692;23.278;2023-07-24T02:46:59;95211.59;;;21.93;73.87
6132;BME280;3097;42.692;23.278;2023-07-24T02:49:24;95200.97;;;21.85;73.85
6132;BME280;3097;42.692;23.278;2023-07-24T02:51:50;95202.72;;;21.89;74.03
6132;BME280;3097;42.692;23.278;2023-07-24T02:54:15;95205.41;;;21.84;74.47
6132;BME280;3097;42.692;23.278;2023-07-24T02:56:41;95212.16;;;21.90;74.39
6132;BME280;3097;42.692;23.278;2023-07-24T02:59:06;95206.28;;;21.80;74.17
6132;BME280;3097;42.692;23.278;2023-07-24T03:01:32;95203.34;;;21.81;74.53
6132;BME280;3097;42.692;23.278;2023-07-24T03:03:57;95203.78;;;21.88;74.21
6132;BME280;3097;42.692;23.278;2023-07-24T03:06:22;95197.13;;;21.77;74.29
6132;BME280;3097;42.692;23.278;2023-07-24T03:08:49;95201.59;;;21.77;74.62
6132;BME280;3097;42.692;23.278;2023-07-24T03:11:14;95205.19;;;21.81;74.44
6132;BME280;3097;42.692;23.278;2023-07-24T03:13:39;95210.41;;;21.86;73.93
6132;BME280;3097;42.692;23.278;2023-07-24T03:16:06;95210.16;;;21.82;73.83
6132;BME280;3097;42.692;23.278;2023-07-24T03:18:31;95208.94;;;21.75;74.17
6132;BME280;3097;42.692;23.278;2023-07-24T03:20:58;95194.69;;;21.62;74.56
6132;BME280;3097;42.692;23.278;2023-07-24T03:23:24;95178.78;;;21.53;74.52
6132;BME280;3097;42.692;23.278;2023-07-24T03:25:49;95213.41;;;21.74;74.26
6132;BME280;3097;42.692;23.278;2023-07-24T03:28:16;95217.09;;;21.73;74.49
6132;BME280;3097;42.692;23.278;2023-07-24T03:30:42;95215.56;;;21.72;74.41
6132;BME280;3097;42.692;23.278;2023-07-24T03:33:07;95177.59;;;21.46;74.16
6132;BME280;3097;42.692;23.278;2023-07-24T03:35:33;95187.72;;;21.52;74.70
6132;BME280;3097;42.692;23.278;2023-07-24T03:37:58;95211.78;;;21.59;74.76
6132;BME280;3097;42.692;23.278;2023-07-24T03:40:24;95188.63;;;21.43;74.75
6132;BME280;3097;42.692;23.278;2023-07-24T03:43:08;95212.56;;;21.60;74.91
6132;BME280;3097;42.692;23.278;2023-07-24T03:45:33;95202.66;;;21.57;74.90
6132;BME280;3097;42.692;23.278;2023-07-24T03:47:59;95174.53;;;21.39;75.00
6132;BME280;3097;42.692;23.278;2023-07-24T03:50:24;95205.31;;;21.52;74.85
6132;BME280;3097;42.692;23.278;2023-07-24T03:52:50;95205.19;;;21.62;74.26
6132;BME280;3097;42.692;23.278;2023-07-24T03:55:15;95195.84;;;21.56;74.54
6132;BME280;3097;42.692;23.278;2023-07-24T03:57:41;95213.00;;;21.67;74.54
6132;BME280;3097;42.692;23.278;2023-07-24T04:00:07;95214.00;;;21.71;74.24
6132;BME280;3097;42.692;23.278;2023-07-24T04:02:32;95216.03;;;21.74;74.31
6132;BME280;3097;42.692;23.278;2023-07-24T04:04:58;95224.34;;;21.81;73.92
6132;BME280;3097;42.692;23.278;2023-07-24T04:07:23;95222.31;;;21.78;74.11
6132;BME280;3097;42.692;23.278;2023-07-24T04:09:49;95217.06;;;21.78;73.88
6132;BME280;3097;42.692;23.278;2023-07-24T04:12:15;95223.38;;;21.77;74.62
6132;BME280;3097;42.692;23.278;2023-07-24T04:14:40;95183.19;;;21.58;74.20
6132;BME280;3097;42.692;23.278;2023-07-24T04:17:06;95232.38;;;21.90;74.14
6132;BME280;3097;42.692;23.278;2023-07-24T04:19:31;95202.88;;;21.79;74.14
6132;BME280;3097;42.692;23.278;2023-07-24T04:21:57;95229.84;;;22.04;74.54
6132;BME280;3097;42.692;23.278;2023-07-24T04:24:22;95229.22;;;22.12;74.13
6132;BME280;3097;42.692;23.278;2023-07-24T04:26:47;95236.44;;;22.20;73.76
6132;BME280;3097;42.692;23.278;2023-07-24T04:29:13;95210.03;;;22.30;72.79
6132;BME280;3097;42.692;23.278;2023-07-24T04:31:38;95236.25;;;22.67;71.76
6132;BME280;3097;42.692;23.278;2023-07-24T04:34:04;95223.28;;;22.90;71.23
6132;BME280;3097;42.692;23.278;2023-07-24T04:36:29;95222.50;;;23.03;69.97
6132;BME280;3097;42.692;23.278;2023-07-24T04:38:54;95230.13;;;23.18;69.63
6132;BME280;3097;42.692;23.278;2023-07-24T04:41:20;95224.78;;;23.64;68.77
6132;BME280;3097;42.692;23.278;2023-07-24T04:43:45;95204.09;;;24.07;67.00
6132;BME280;3097;42.692;23.278;2023-07-24T04:46:13;95228.19;;;24.81;64.81
6132;BME280;3097;42.692;23.278;2023-07-24T04:48:39;95206.88;;;25.22;62.28
6132;BME280;3097;42.692;23.278;2023-07-24T04:51:04;95226.66;;;25.99;61.04
6132;BME280;3097;42.692;23.278;2023-07-24T04:53:30;95238.00;;;26.68;58.69
6132;BME280;3097;42.692;23.278;2023-07-24T04:55:55;95230.09;;;27.23;56.29
6132;BME280;3097;42.692;23.278;2023-07-24T04:58:21;95229.19;;;27.57;55.00
6132;BME280;3097;42.692;23.278;2023-07-24T05:00:46;95229.16;;;28.16;54.08
6132;BME280;3097;42.692;23.278;2023-07-24T05:03:11;95232.00;;;28.85;52.37
6132;BME280;3097;42.692;23.278;2023-07-24T05:05:37;95236.06;;;29.40;50.53
6132;BME280;3097;42.692;23.278;2023-07-24T05:08:03;95220.47;;;29.99;48.97
6132;BME280;3097;42.692;23.278;2023-07-24T05:10:29;95234.13;;;30.66;47.51
6132;BME280;3097;42.692;23.278;2023-07-24T05:12:54;95231.13;;;31.27;45.97
6132;BME280;3097;42.692;23.278;2023-07-24T05:15:22;95206.75;;;31.75;44.82
6132;BME280;3097;42.692;23.278;2023-07-24T05:17:47;95223.16;;;32.47;43.69
6132;BME280;3097;42.692;23.278;2023-07-24T05:20:12;95218.16;;;33.07;43.05
6132;BME280;3097;42.692;23.278;2023-07-24T05:22:38;95219.44;;;33.36;41.81
6132;BME280;3097;42.692;23.278;2023-07-24T05:25:03;95225.97;;;33.65;40.29
6132;BME280;3097;42.692;23.278;2023-07-24T05:27:29;95219.59;;;33.99;40.52
6132;BME280;3097;42.692;23.278;2023-07-24T05:29:55;95214.91;;;34.49;39.58
6132;BME280;3097;42.692;23.278;2023-07-24T05:32:20;95219.00;;;34.73;37.10
6132;BME280;3097;42.692;23.278;2023-07-24T05:34:46;95213.16;;;35.01;36.75
6132;BME280;3097;42.692;23.278;2023-07-24T05:37:11;95215.22;;;35.18;36.27
6132;BME280;3097;42.692;23.278;2023-07-24T05:39:36;95213.13;;;35.41;35.92
6132;BME280;3097;42.692;23.278;2023-07-24T05:42:02;95210.66;;;35.69;35.54
6132;BME280;3097;42.692;23.278;2023-07-24T05:44:28;95200.84;;;35.95;35.24
6132;BME280;3097;42.692;23.278;2023-07-24T05:46:54;95205.38;;;35.77;33.15
6132;BME280;3097;42.692;23.278;2023-07-24T05:49:19;95196.75;;;36.15;33.51
6132;BME280;3097;42.692;23.278;2023-07-24T05:51:44;95189.59;;;36.51;33.07
6132;BME280;3097;42.692;23.278;2023-07-24T05:54:10;95176.63;;;36.78;33.00
6132;BME280;3097;42.692;23.278;2023-07-24T05:56:35;95199.28;;;36.84;31.47
6132;BME280;3097;42.692;23.278;2023-07-24T05:59:01;95197.38;;;36.74;30.69
6132;BME280;3097;42.692;23.278;2023-07-24T06:01:26;95192.31;;;36.51;31.26
6132;BME280;3097;42.692;23.278;2023-07-24T06:03:51;95194.59;;;36.53;30.82
6132;BME280;3097;42.692;23.278;2023-07-24T06:06:17;95184.69;;;36.78;31.62
6132;BME280;3097;42.692;23.278;2023-07-24T06:08:42;95188.53;;;36.77;30.51
6132;BME280;3097;42.692;23.278;2023-07-24T06:11:08;95189.34;;;37.09;31.82
6132;BME280;3097;42.692;23.278;2023-07-24T06:13:33;95192.84;;;37.24;30.15
6132;BME280;3097;42.692;23.278;2023-07-24T06:15:59;95191.31;;;37.34;31.24
6132;BME280;3097;42.692;23.278;2023-07-24T06:18:25;95190.88;;;37.67;30.83
6132;BME280;3097;42.692;23.278;2023-07-24T06:20:53;95179.63;;;38.22;30.11
6132;BME280;3097;42.692;23.278;2023-07-24T06:23:19;95191.03;;;38.54;29.51
6132;BME280;3097;42.692;23.278;2023-07-24T06:25:44;95183.34;;;38.53;30.03
6132;BME280;3097;42.692;23.278;2023-07-24T06:28:10;95192.53;;;38.62;30.32
6132;BME280;3097;42.692;23.278;2023-07-24T06:30:35;95194.13;;;38.53;29.31
6132;BME280;3097;42.692;23.278;2023-07-24T06:33:00;95188.50;;;37.97;31.40
6132;BME280;3097;42.692;23.278;2023-07-24T06:35:26;95198.59;;;37.58;31.64
6132;BME280;3097;42.692;23.278;2023-07-24T06:37:51;95188.94;;;36.93;32.46
6132;BME280;3097;42.692;23.278;2023-07-24T06:40:17;95191.16;;;36.56;34.19
6132;BME280;3097;42.692;23.278;2023-07-24T06:42:42;95194.94;;;36.37;35.21
6132;BME280;3097;42.692;23.278;2023-07-24T06:45:08;95174.78;;;35.92;34.81
6132;BME280;3097;42.692;23.278;2023-07-24T06:47:33;95179.97;;;35.67;34.63
6132;BME280;3097;42.692;23.278;2023-07-24T06:49:59;95195.16;;;35.01;36.20
6132;BME280;3097;42.692;23.278;2023-07-24T06:52:24;95188.25;;;34.63;37.89
6132;BME280;3097;42.692;23.278;2023-07-24T06:54:50;95189.59;;;34.43;38.09
6132;BME280;3097;42.692;23.278;2023-07-24T06:57:15;95199.31;;;34.25;39.04
6132;BME280;3097;42.692;23.278;2023-07-24T06:59:41;95195.38;;;34.18;39.13
6132;BME280;3097;42.692;23.278;2023-07-24T07:02:06;95201.53;;;33.93;39.91
6132;BME280;3097;42.692;23.278;2023-07-24T07:04:31;95193.50;;;33.89;40.86
6132;BME280;3097;42.692;23.278;2023-07-24T07:06:57;95198.19;;;33.99;39.68
6132;BME280;3097;42.692;23.278;2023-07-24T07:09:25;95200.91;;;33.73;40.12
6132;BME280;3097;42.692;23.278;2023-07-24T07:11:51;95205.50;;;33.76;39.77
6132;BME280;3097;42.692;23.278;2023-07-24T07:14:16;95215.16;;;33.58;40.04
6132;BME280;3097;42.692;23.278;2023-07-24T07:16:41;95201.50;;;33.36;39.71
6132;BME280;3097;42.692;23.278;2023-07-24T07:19:07;95191.91;;;33.13;41.62
6132;BME280;3097;42.692;23.278;2023-07-24T07:21:34;95193.25;;;33.22;41.77
6132;BME280;3097;42.692;23.278;2023-07-24T07:23:59;95192.84;;;33.47;40.61
6132;BME280;3097;42.692;23.278;2023-07-24T07:26:25;95185.44;;;33.36;39.85
6132;BME280;3097;42.692;23.278;2023-07-24T07:28:50;95189.88;;;33.52;42.05
6132;BME280;3097;42.692;23.278;2023-07-24T07:31:16;95189.84;;;33.74;40.97
6132;BME280;3097;42.692;23.278;2023-07-24T07:33:44;95173.41;;;33.76;40.67
6132;BME280;3097;42.692;23.278;2023-07-24T07:36:09;95180.72;;;33.79;40.40
6132;BME280;3097;42.692;23.278;2023-07-24T07:38:35;95177.34;;;33.82;39.82
6132;BME280;3097;42.692;23.278;2023-07-24T07:41:04;95151.75;;;33.58;40.72
6132;BME280;3097;42.692;23.278;2023-07-24T07:43:30;95168.94;;;33.84;41.07
6132;BME280;3097;42.692;23.278;2023-07-24T07:45:55;95178.41;;;34.07;40.40
6132;BME280;3097;42.692;23.278;2023-07-24T07:48:22;95177.97;;;34.02;37.67
6132;BME280;3097;42.692;23.278;2023-07-24T07:50:53;95146.53;;;33.69;38.68
6132;BME280;3097;42.692;23.278;2023-07-24T07:53:18;95170.63;;;33.95;37.89
6132;BME280;3097;42.692;23.278;2023-07-24T07:55:44;95172.69;;;34.09;39.44
6132;BME280;3097;42.692;23.278;2023-07-24T07:58:09;95164.81;;;34.19;38.48
6132;BME280;3097;42.692;23.278;2023-07-24T08:00:35;95175.28;;;34.32;39.40
6132;BME280;3097;42.692;23.278;2023-07-24T08:03:00;95173.13;;;34.44;38.77
6132;BME280;3097;42.692;23.278;2023-07-24T08:05:26;95159.72;;;34.41;37.38
6132;BME280;3097;42.692;23.278;2023-07-24T08:07:51;95171.75;;;34.24;36.32
6132;BME280;3097;42.692;23.278;2023-07-24T08:10:17;95175.91;;;33.92;36.28
6132;BME280;3097;42.692;23.278;2023-07-24T08:12:42;95174.31;;;33.61;36.39
6132;BME280;3097;42.692;23.278;2023-07-24T08:15:09;95168.00;;;33.46;38.03
6132;BME280;3097;42.692;23.278;2023-07-24T08:17:34;95161.06;;;33.41;40.39
6132;BME280;3097;42.692;23.278;2023-07-24T08:20:00;95157.78;;;33.52;39.39
6132;BME280;3097;42.692;23.278;2023-07-24T08:22:28;95151.81;;;33.62;39.13
6132;BME280;3097;42.692;23.278;2023-07-24T08:24:54;95152.84;;;33.80;37.76
6132;BME280;3097;42.692;23.278;2023-07-24T08:27:19;95150.63;;;33.59;37.81
6132;BME280;3097;42.692;23.278;2023-07-24T08:29:44;95152.91;;;33.57;37.89
6132;BME280;3097;42.692;23.278;2023-07-24T08:32:10;95140.03;;;33.40;37.29
6132;BME280;3097;42.692;23.278;2023-07-24T08:34:35;95135.91;;;33.20;38.70
6132;BME280;3097;42.692;23.278;2023-07-24T08:37:05;95133.53;;;33.15;38.54
6132;BME280;3097;42.692;23.278;2023-07-24T08:39:30;95133.16;;;33.16;38.45
6132;BME280;3097;42.692;23.278;2023-07-24T08:41:56;95141.06;;;33.09;40.15
6132;BME280;3097;42.692;23.278;2023-07-24T08:44:22;95135.34;;;33.07;38.65
6132;BME280;3097;42.692;23.278;2023-07-24T08:46:54;95119.59;;;32.79;40.74
6132;BME280;3097;42.692;23.278;2023-07-24T08:49:20;95131.88;;;33.07;40.63
6132;BME280;3097;42.692;23.278;2023-07-24T08:51:46;95134.84;;;33.01;37.96
6132;BME280;3097;42.692;23.278;2023-07-24T08:54:12;95140.97;;;33.02;38.72
6132;BME280;3097;42.692;23.278;2023-07-24T08:56:38;95137.50;;;33.01;38.69
6132;BME280;3097;42.692;23.278;2023-07-24T08:59:05;95126.31;;;32.92;39.29
6132;BME280;3097;42.692;23.278;2023-07-24T09:01:31;95124.16;;;33.01;39.83
6132;BME280;3097;42.692;23.278;2023-07-24T09:03:56;95130.50;;;33.16;40.89
6132;BME280;3097;42.692;23.278;2023-07-24T09:06:22;95121.13;;;33.26;39.48
6132;BME280;3097;42.692;23.278;2023-07-24T09:08:48;95123.03;;;33.25;38.82
6132;BME280;3097;42.692;23.278;2023-07-24T09:11:16;95122.72;;;33.30;39.79
6132;BME280;3097;42.692;23.278;2023-07-24T09:13:43;95124.66;;;33.33;37.39
6132;BME280;3097;42.692;23.278;2023-07-24T09:16:09;95121.09;;;32.99;39.88
6132;BME280;3097;42.692;23.278;2023-07-24T09:18:41;95108.53;;;33.03;39.01
6132;BME280;3097;42.692;23.278;2023-07-24T09:21:07;95108.19;;;33.05;38.67
6132;BME280;3097;42.692;23.278;2023-07-24T09:23:33;95102.25;;;33.15;37.73
6132;BME280;3097;42.692;23.278;2023-07-24T09:25:59;95074.03;;;32.91;39.43
6132;BME280;3097;42.692;23.278;2023-07-24T09:28:30;95088.25;;;32.99;39.36
6132;BME280;3097;42.692;23.278;2023-07-24T09:30:57;95096.03;;;33.08;39.25
6132;BME280;3097;42.692;23.278;2023-07-24T09:33:23;95096.63;;;33.20;38.96
6132;BME280;3097;42.692;23.278;2023-07-24T09:36:00;95092.06;;;33.24;37.65
6132;BME280;3097;42.692;23.278;2023-07-24T09:38:26;95094.81;;;33.28;38.60
6132;BME280;3097;42.692;23.278;2023-07-24T09:40:52;95081.44;;;33.28;37.28
6132;BME280;3097;42.692;23.278;2023-07-24T09:43:22;95079.97;;;33.30;37.27
6132;BME280;3097;42.692;23.278;2023-07-24T09:45:49;95056.31;;;33.06;40.34
6132;BME280;3097;42.692;23.278;2023-07-24T09:48:16;95057.31;;;33.21;38.11
6132;BME280;3097;42.692;23.278;2023-07-24T09:50:43;95061.00;;;33.16;37.51
6132;BME280;3097;42.692;23.278;2023-07-24T09:55:49;95058.56;;;33.04;38.86
6132;BME280;3097;42.692;23.278;2023-07-24T09:58:18;95060.09;;;33.05;39.36
6132;BME280;3097;42.692;23.278;2023-07-24T10:00:44;95042.78;;;32.95;39.84
6132;BME280;3097;42.692;23.278;2023-07-24T10:03:10;95044.88;;;33.09;39.70
6132;BME280;3097;42.692;23.278;2023-07-24T10:05:36;95052.63;;;33.18;38.98
6132;BME280;3097;42.692;23.278;2023-07-24T10:08:04;95024.13;;;32.99;38.03
6132;BME280;3097;42.692;23.278;2023-07-24T10:10:30;95047.28;;;33.18;38.92
6132;BME280;3097;42.692;23.278;2023-07-24T10:12:57;95035.50;;;32.92;37.38
6132;BME280;3097;42.692;23.278;2023-07-24T10:15:24;95035.53;;;32.70;40.12
6132;BME280;3097;42.692;23.278;2023-07-24T10:18:05;95028.34;;;32.74;38.34
6132;BME280;3097;42.692;23.278;2023-07-24T10:20:36;95020.78;;;32.56;39.14
6132;BME280;3097;42.692;23.278;2023-07-24T10:23:04;95029.28;;;32.62;41.39
6132;BME280;3097;42.692;23.278;2023-07-24T10:25:34;95026.53;;;32.81;40.45
6132;BME280;3097;42.692;23.278;2023-07-24T10:28:04;95020.69;;;32.98;38.75
6132;BME280;3097;42.692;23.278;2023-07-24T10:30:33;95026.06;;;33.02;39.64
6132;BME280;3097;42.692;23.278;2023-07-24T10:33:10;95011.16;;;33.01;38.79
6132;BME280;3097;42.692;23.278;2023-07-24T10:38:05;95018.16;;;33.09;40.40
6132;BME280;3097;42.692;23.278;2023-07-24T10:40:32;94991.81;;;33.08;38.95
6132;BME280;3097;42.692;23.278;2023-07-24T10:43:00;95006.84;;;33.19;38.48
6132;BME280;3097;42.692;23.278;2023-07-24T10:45:25;95006.06;;;33.19;39.42
6132;BME280;3097;42.692;23.278;2023-07-24T10:47:51;95010.84;;;33.32;35.94
6132;BME280;3097;42.692;23.278;2023-07-24T10:50:17;95001.22;;;33.24;36.74
6132;BME280;3097;42.692;23.278;2023-07-24T10:52:42;94999.00;;;33.30;35.99
6132;BME280;3097;42.692;23.278;2023-07-24T10:55:08;94994.03;;;33.28;36.41
6132;BME280;3097;42.692;23.278;2023-07-24T10:57:33;94995.94;;;33.31;37.29
6132;BME280;3097;42.692;23.278;2023-07-24T10:59:59;94978.78;;;33.32;36.48
6132;BME280;3097;42.692;23.278;2023-07-24T11:02:25;94999.69;;;33.57;36.18
6132;BME280;3097;42.692;23.278;2023-07-24T11:04:50;94994.78;;;33.62;37.12
6132;BME280;3097;42.692;23.278;2023-07-24T11:07:16;94989.84;;;33.64;35.43
6132;BME280;3097;42.692;23.278;2023-07-24T11:09:41;94964.06;;;33.46;36.07
6132;BME280;3097;42.692;23.278;2023-07-24T11:12:11;94982.13;;;33.56;36.07
6132;BME280;3097;42.692;23.278;2023-07-24T11:14:50;94986.34;;;33.57;35.64
6132;BME280;3097;42.692;23.278;2023-07-24T11:17:16;94973.66;;;33.50;35.65
6132;BME280;3097;42.692;23.278;2023-07-24T11:19:42;94956.34;;;33.40;36.42
6132;BME280;3097;42.692;23.278;2023-07-24T11:22:07;94972.97;;;33.57;35.44
6132;BME280;3097;42.692;23.278;2023-07-24T11:24:33;94944.50;;;33.38;35.61
6132;BME280;3097;42.692;23.278;2023-07-24T11:26:58;94962.28;;;33.57;36.81
6132;BME280;3097;42.692;23.278;2023-07-24T11:29:23;94964.00;;;33.72;37.18
6132;BME280;3097;42.692;23.278;2023-07-24T11:31:55;94959.75;;;33.71;36.93
6132;BME280;3097;42.692;23.278;2023-07-24T11:34:22;94952.34;;;33.57;37.40
6132;BME280;3097;42.692;23.278;2023-07-24T11:36:48;94955.31;;;33.49;37.48
6132;BME280;3097;42.692;23.278;2023-07-24T11:39:21;94947.53;;;33.36;38.75
6132;BME280;3097;42.692;23.278;2023-07-24T11:41:47;94926.84;;;33.30;38.64
6132;BME280;3097;42.692;23.278;2023-07-24T11:44:13;94952.13;;;33.39;36.89
6132;BME280;3097;42.692;23.278;2023-07-24T11:46:42;94945.09;;;33.24;37.46
6132;BME280;3097;42.692;23.278;2023-07-24T11:49:08;94924.19;;;33.03;38.03
6132;BME280;3097;42.692;23.278;2023-07-24T11:51:36;94942.19;;;33.07;38.49
6132;BME280;3097;42.692;23.278;2023-07-24T11:54:09;94937.19;;;33.05;38.25
6132;BME280;3097;42.692;23.278;2023-07-24T11:56:36;94942.56;;;33.09;37.25
6132;BME280;3097;42.692;23.278;2023-07-24T11:59:14;94934.53;;;33.05;37.48
6132;BME280;3097;42.692;23.278;2023-07-24T12:01:40;94908.72;;;32.86;38.28
6132;BME280;3097;42.692;23.278;2023-07-24T12:04:05;94927.31;;;33.09;38.50
6132;BME280;3097;42.692;23.278;2023-07-24T12:06:31;94922.72;;;33.06;37.37
6132;BME280;3097;42.692;23.278;2023-07-24T12:09:04;94924.16;;;33.00;37.64
6132;BME280;3097;42.692;23.278;2023-07-24T12:11:33;94932.81;;;32.90;38.59
6132;BME280;3097;42.692;23.278;2023-07-24T12:14:04;94924.81;;;32.93;38.32
6132;BME280;3097;42.692;23.278;2023-07-24T12:16:30;94928.84;;;32.80;39.00
6132;BME280;3097;42.692;23.278;2023-07-24T12:18:56;94936.16;;;32.83;37.28
6132;BME280;3097;42.692;23.278;2023-07-24T12:21:21;94925.97;;;32.66;37.83
6132;BME280;3097;42.692;23.278;2023-07-24T12:23:47;94930.38;;;32.78;37.88
6132;BME280;3097;42.692;23.278;2023-07-24T12:26:12;94909.78;;;32.55;38.75
6132;BME280;3097;42.692;23.278;2023-07-24T12:28:38;94912.78;;;32.77;38.15
6132;BME280;3097;42.692;23.278;2023-07-24T12:31:03;94914.72;;;32.80;36.97
6132;BME280;3097;42.692;23.278;2023-07-24T12:33:29;94909.44;;;32.83;36.63
6132;BME280;3097;42.692;23.278;2023-07-24T12:35:54;94909.56;;;32.94;37.75
6132;BME280;3097;42.692;23.278;2023-07-24T12:38:20;94895.00;;;32.88;37.98
6132;BME280;3097;42.692;23.278;2023-07-24T12:40:45;94898.41;;;33.18;37.19
6132;BME280;3097;42.692;23.278;2023-07-24T12:43:11;94897.03;;;33.28;37.52
6132;BME280;3097;42.692;23.278;2023-07-24T12:45:36;94903.94;;;33.32;36.59
6132;BME280;3097;42.692;23.278;2023-07-24T12:48:02;94898.53;;;33.25;36.24
6132;BME280;3097;42.692;23.278;2023-07-24T12:50:27;94893.19;;;33.25;36.38
6132;BME280;3097;42.692;23.278;2023-07-24T12:52:53;94893.81;;;33.15;36.70
6132;BME280;3097;42.692;23.278;2023-07-24T12:55:18;94897.66;;;33.18;35.46
6132;BME280;3097;42.692;23.278;2023-07-24T12:57:44;94896.00;;;33.06;36.95
6132;BME280;3097;42.692;23.278;2023-07-24T13:00:10;94888.34;;;33.04;37.74
6132;BME280;3097;42.692;23.278;2023-07-24T13:02:35;94886.69;;;33.23;37.02
6132;BME280;3097;42.692;23.278;2023-07-24T13:05:01;94884.88;;;33.34;36.77
6132;BME280;3097;42.692;23.278;2023-07-24T13:07:26;94887.97;;;33.39;36.57
6132;BME280;3097;42.692;23.278;2023-07-24T13:09:51;94860.78;;;33.30;36.31
6132;BME280;3097;42.692;23.278;2023-07-24T13:12:17;94853.53;;;33.31;36.51